Brookings, OR

07:41 PM PST am 23. November 2014 (GMT -0800)
Brookings | Change Station
CLOSE
Current Station
Flughafen
Location: Brookings,
Höhe: 459 ft
Wetterstationen in der Umgebung

Höhe 459 ft 42.07 °N, 124.29 °W | Updated 45 minutes ago

Heiter
Heiter
46 °F
gefühlte 46 °F
N
0
Wind Wechselnd Wind aus Nord

Heute
Max. -- | schwach -- °F
--% Regenrisiko
Gestern
Max. -- | schwach -- °F
Precip. -- inch
7:17 AM 4:49 PM
Erstes Viertel, 3% visible
Druck 30.37 inch
Sichtweite 7.0 Meilen
Wolken Heiter
Taupunkt 46 °F
Feuchtigkeit 100%
Regen 0.00 inch
Schneehöhe Nicht verfügbar..
UV 0 von 12
Pollen .30 von 12
Luftqualität Nicht verfügbar..
Flu Activity Nicht verfügbar..
METAR KBOK 240256Z AUTO 00000KT 7SM CLR 08/08 A3035 RMK AO2 50001 T00770077 SLP282

More Conditions Fewer Conditions

Druck 30.37 inch
Sichtweite 7.0 Meilen
Wolken Heiter
Taupunkt 46 °F
Feuchtigkeit 100%
Regen 0.00 inch
Schneehöhe Nicht verfügbar..
UV 0 von 12
Pollen .30 von 12
Luftqualität Nicht verfügbar..
Flu Activity Nicht verfügbar..
METAR KBOK 240256Z AUTO 00000KT 7SM CLR 08/08 A3035 RMK AO2 50001 T00770077 SLP282

More Conditions Fewer Conditions

10-Day Weather Forecast

Almanac

Astronomie

Nov. 23, 2014 Aufgang Untergang
Genaue Zeit
Bürgerliche Dämmerung
Nautische Dämmerung
Astronomische Dämmerung
Mond
Länge des sichtbaren Lichts
Tageslänge
Tomorrow will be .
, % of the Moon is Illuminated

Heutige Rekorde

State Highs State Lows

Community

WunderPhotos

Upload Photos

1,773,262 Fotos hochgeladen!

WunderBlogs® & News

Nearby

Luftqualität

  Luftqualität LQ Index Schadstoff
Not available.

Schneehöhe

Station Depth Höhe

Erdbebenaktivität

Stadt Distance Mag. Time & Date
Minimum magnitude displayed is 2.5.

küstennahe Wassertemperaturen

Ort Temperatur

Wetterstationen in der Umgebung